^^
Station Historical Data
Daily Summary for November 30, 2017 Units:  Metric    English   Both
« Previous Day
Next Day »
Daily Weekly Monthly Yearly Custom
  High: Low: Average:
Temperature: 31.3 °C 21.6 °C 25.2 °C
Dew Point: 0 °C -8.9 °C -5.1 °C
Humidity: 17% 11% 13%
Wind Speed: 30.6km/h 7.9km/h 18km/h
Wind Gust: 35.4km/h - -
Wind- - SSW
Pressure: 1010.4 hPa 1006.7 hPa -
Precipitation: 0 mm    
Historical Graphs
 
 
Tabular Data for November 30, 2017
Time Temperature Dew Point Pressure Wind Wind Speed Wind Gust Humidity Rainfall Rate (Hourly) solar Conditions
18:37 31.3 °C -1.5 °C 1006.7 hPa SSW 19.5 km/h 30.6 km/h 12% 0 mm 104.0 W/m2
18:56 30.4 °C -1.1 °C 1007 hPa SSW 20.9 km/h 30.6 km/h 13% 0 mm 28.0 W/m2
19:03 30.2 °C -0.3 °C 1007 hPa SSW 25.9 km/h 33.8 km/h 14% 0 mm 19.0 W/m2
19:11 29.8 °C -0.6 °C 1007 hPa SW 25.9 km/h 35.4 km/h 14% 0 mm 16.0 W/m2
19:16 29.5 °C -0.8 °C 1007 hPa SSW 30.6 km/h 30.6 km/h 14% 0 mm 12.0 W/m2
20:06 27.2 °C 0 °C 1007.7 hPa SSW 25.9 km/h 32.2 km/h 17% 0 mm 0.0 W/m2
20:21 26.7 °C -1.2 °C 1008.4 hPa SSW 25.9 km/h 29 km/h 16% 0 mm 0.0 W/m2
20:37 26.2 °C -1.6 °C 1008.7 hPa SSW 14.3 km/h 25.7 km/h 16% 0 mm 0.0 W/m2
20:52 25.8 °C -2.8 °C 1008.7 hPa South 19.5 km/h 32.2 km/h 15% 0 mm 0.0 W/m2
21:21 24.8 °C -6.5 °C 1009 hPa SSW 19.5 km/h 27.4 km/h 12% 0 mm 0.0 W/m2
21:43 24.3 °C -4.9 °C 1009.4 hPa South 20.9 km/h 25.7 km/h 14% 0 mm 0.0 W/m2
21:51 24.1 °C -5.1 °C 1009.7 hPa South 20.9 km/h 20.9 km/h 14% 0 mm 0.0 W/m2
22:13 23.8 °C -7.3 °C 1010 hPa SSW 19.5 km/h 24.1 km/h 12% 0 mm 0.0 W/m2
22:25 23.7 °C -7.4 °C 1010.4 hPa SSW 16.3 km/h 20.9 km/h 12% 0 mm 0.0 W/m2
22:35 23.5 °C -7.6 °C 1010 hPa SW 19.5 km/h 20.9 km/h 12% 0 mm 0.0 W/m2
22:44 23.2 °C -8.9 °C 1010.4 hPa SSW 16.3 km/h 19.3 km/h 11% 0 mm 0.0 W/m2
22:52 23.1 °C -7.9 °C 1010.4 hPa SSW 11.1 km/h 17.7 km/h 12% 0 mm 0.0 W/m2
22:57 22.9 °C -8 °C 1010.4 hPa SSW 13 km/h 17.7 km/h 12% 0 mm 0.0 W/m2
23:02 22.8 °C -8.1 °C 1010 hPa SSW 9.7 km/h 12.9 km/h 12% 0 mm 0.0 W/m2
23:22 22.3 °C -8.5 °C 1010.4 hPa SSW 9.7 km/h 16.1 km/h 12% 0 mm 0.0 W/m2
23:27 22.2 °C -8.6 °C 1010.4 hPa SW 13 km/h 17.7 km/h 12% 0 mm 0.0 W/m2
23:32 22.1 °C -8.6 °C 1010.4 hPa SW 9.7 km/h 14.5 km/h 12% 0 mm 0.0 W/m2
23:37 22 °C -8.7 °C 1010.4 hPa SW 7.9 km/h 12.9 km/h 12% 0 mm 0.0 W/m2
23:57 21.6 °C -7.1 °C 1010 hPa SW 16.3 km/h 20.9 km/h 14% 0 mm 0.0 W/m2
Canyon Roadhouse, Fishriver Canyon, Namibia
Compliments of Weather Underground - 1.75 mb